createdAt,value
2017-08-01T16:20:06.620Z,97228.97
2017-08-01T16:22:11.278Z,97229.47
2017-08-01T16:24:17.556Z,97236.55
2017-08-01T16:26:24.411Z,97234.23
2017-08-01T16:28:28.917Z,97233.62
2017-08-01T16:30:32.712Z,97232.47
2017-08-01T16:32:36.443Z,97228.57
2017-08-01T16:34:40.511Z,97234.90
2017-08-01T16:36:46.589Z,97233.94
2017-08-01T16:38:50.578Z,97231.36
2017-08-01T16:40:54.050Z,97226.31
2017-08-01T16:42:58.170Z,97230.99
2017-08-01T16:45:04.983Z,97226.66
2017-08-01T16:47:13.269Z,97234.69
2017-08-01T16:49:18.046Z,97231.36
2017-08-01T16:51:23.806Z,97233.94
2017-08-01T16:53:27.559Z,97233.63
2017-08-01T16:55:31.218Z,97239.89
2017-08-01T16:57:36.624Z,97244.55
2017-08-01T16:59:42.368Z,97245.34
2017-08-01T17:01:46.144Z,97246.53
2017-08-01T17:03:51.147Z,97246.31
2017-08-01T17:05:55.869Z,97248.85
2017-08-01T17:07:59.479Z,97253.75
2017-08-01T17:10:03.027Z,97254.96
2017-08-01T17:12:06.653Z,97258.09
2017-08-01T17:14:10.446Z,97264.91
2017-08-01T17:16:15.459Z,97259.45
2017-08-01T17:18:21.564Z,97260.98
2017-08-01T17:20:25.363Z,97269.97
2017-08-01T17:22:31.608Z,97263.95
2017-08-01T17:24:36.416Z,97268.45
2017-08-01T17:26:41.408Z,97269.06
2017-08-01T17:28:45.416Z,97273.66
2017-08-01T17:30:49.049Z,97284.17
2017-08-01T17:32:52.678Z,97279.42
2017-08-01T17:34:59.596Z,97274.67
2017-08-01T17:37:03.346Z,97281.96
2017-08-01T17:39:06.897Z,97284.62
2017-08-01T17:41:10.822Z,97282.30
2017-08-01T17:43:17.245Z,97288.31
2017-08-01T17:45:23.754Z,97289.89
2017-08-01T17:47:29.959Z,97296.56
2017-08-01T17:49:36.388Z,97294.58
2017-08-01T17:51:41.894Z,97290.23
2017-08-01T17:53:49.151Z,97290.09
2017-08-01T17:55:53.867Z,97296.72
2017-08-01T17:57:59.042Z,97293.22
2017-08-01T18:00:04.739Z,97295.55
2017-08-01T18:02:10.951Z,97290.30
2017-08-01T18:04:15.983Z,97295.76
2017-08-01T18:06:23.047Z,97293.63
2017-08-01T18:08:27.680Z,97291.36
2017-08-01T18:10:35.472Z,97296.11
2017-08-01T18:12:40.919Z,97298.83
2017-08-01T18:14:45.196Z,97299.23
2017-08-01T18:16:49.011Z,97304.85
2017-08-01T18:18:53.797Z,97305.26
2017-08-01T18:21:01.664Z,97303.48
2017-08-01T18:23:05.765Z,97310.16
2017-08-01T18:25:09.466Z,97309.91
2017-08-01T18:27:14.616Z,97310.87
2017-08-01T18:29:19.502Z,97320.02
2017-08-01T18:31:25.261Z,97317.45
2017-08-01T18:33:28.996Z,97315.52
2017-08-01T18:35:33.886Z,97324.92
2017-08-01T18:37:41.754Z,97324.12
2017-08-01T18:39:45.867Z,97327.59
2017-08-01T18:41:49.865Z,97329.36
2017-08-01T18:43:55.607Z,97325.27
2017-08-01T18:46:00.572Z,97327.41
2017-08-01T18:48:06.759Z,97333.27
2017-08-01T18:50:12.087Z,97335.19
2017-08-01T18:52:18.181Z,97336.41
2017-08-01T18:54:22.681Z,97345.40
2017-08-01T18:56:27.129Z,97343.63
2017-08-01T18:58:32.973Z,97349.84
2017-08-01T19:00:37.682Z,97355.11
2017-08-01T19:02:41.437Z,97366.44
2017-08-01T19:04:46.680Z,97364.66
2017-08-01T19:06:51.781Z,97370.13
2017-08-01T19:09:05.918Z,97371.67
2017-08-01T19:11:09.218Z,97385.55
2017-08-01T19:13:16.009Z,97382.41
2017-08-01T19:15:23.150Z,97400.55
2017-08-01T19:17:27.158Z,97402.48
2017-08-01T19:19:30.923Z,97402.33
2017-08-01T19:21:34.549Z,97407.78
2017-08-01T19:23:41.522Z,97419.91
2017-08-01T19:25:45.329Z,97415.42
2017-08-01T19:27:50.650Z,97423.61
2017-08-01T19:29:54.728Z,97429.06
2017-08-01T19:32:00.021Z,97431.80
2017-08-01T19:34:04.374Z,97431.80
2017-08-01T19:36:08.520Z,97436.30
2017-08-01T19:38:15.230Z,97439.83
2017-08-01T19:40:19.144Z,97434.69
2017-08-01T19:42:24.815Z,97441.20
2017-08-01T19:44:28.307Z,97439.59
2017-08-01T19:46:32.084Z,97432.08
2017-08-01T19:48:38.356Z,97432.95
2017-08-01T19:50:43.983Z,97438.56
2017-08-01T19:52:48.718Z,97438.96
2017-08-01T19:54:55.644Z,97443.42
2017-08-01T19:57:04.904Z,97447.53
2017-08-01T19:59:09.112Z,97447.22
2017-08-01T20:01:15.710Z,97448.44
2017-08-01T20:03:22.583Z,97449.28
2017-08-01T20:05:26.889Z,97449.59
2017-08-01T20:07:32.650Z,97450.48
2017-08-01T20:09:35.844Z,97455.61
2017-08-01T20:11:42.288Z,97453.94
2017-08-01T20:13:47.912Z,97449.92
2017-08-01T20:15:51.607Z,97453.69
2017-08-01T20:17:54.790Z,97453.63
2017-08-01T20:20:01.330Z,97448.31
2017-08-01T20:22:07.154Z,97455.86
2017-08-01T20:24:11.036Z,97455.70
2017-08-01T20:26:17.455Z,97454.67
2017-08-01T20:28:23.194Z,97458.54
2017-08-01T20:30:27.054Z,97459.97
2017-08-01T20:32:32.120Z,97459.42
2017-08-01T20:34:36.276Z,97462.95
2017-08-01T20:36:40.849Z,97466.81
2017-08-01T20:38:47.139Z,97469.06
2017-08-01T20:40:53.619Z,97469.55
2017-08-01T20:42:58.772Z,97470.35
2017-08-01T20:45:05.123Z,97477.73
2017-08-01T20:47:09.847Z,97476.27
2017-08-01T20:49:16.360Z,97477.39
2017-08-01T20:51:20.390Z,97476.13
2017-08-01T20:53:24.830Z,97482.23
2017-08-01T20:55:29.791Z,97479.41
2017-08-01T20:57:34.285Z,97483.50
2017-08-01T20:59:39.859Z,97483.52
2017-08-01T21:01:46.498Z,97482.07
2017-08-01T21:03:52.766Z,97479.50
2017-08-01T21:05:56.758Z,97472.59
2017-08-01T21:08:05.549Z,97485.77
2017-08-01T21:10:12.038Z,97487.48
2017-08-01T21:12:17.786Z,97494.05
2017-08-01T21:14:22.246Z,97491.66
2017-08-01T21:16:26.631Z,97501.39
2017-08-01T21:18:31.345Z,97504.57
2017-08-01T21:20:36.634Z,97510.91
2017-08-01T21:22:41.615Z,97508.11
2017-08-01T21:24:50.214Z,97510.85
2017-08-01T21:26:55.066Z,97511.41
2017-08-01T21:28:58.404Z,97506.66
2017-08-01T21:31:04.336Z,97505.38
2017-08-01T21:33:09.987Z,97505.22
2017-08-01T21:35:15.502Z,97500.97
2017-08-01T21:37:19.344Z,97505.20
2017-08-01T21:39:24.538Z,97498.72
2017-08-01T21:41:28.357Z,97501.70
2017-08-01T21:43:34.995Z,97496.16
2017-08-01T21:47:59.965Z,97490.77
2017-08-01T21:50:22.118Z,97484.97
2017-08-01T21:52:43.078Z,97484.42
2017-08-01T21:55:04.322Z,97489.95
2017-08-01T21:57:26.830Z,97487.38
2017-08-01T21:59:48.372Z,97493.17
2017-08-01T22:02:12.056Z,97489.89
2017-08-01T22:04:33.550Z,97484.50
2017-08-01T22:06:55.201Z,97480.66
2017-08-01T22:09:20.923Z,97475.34
2017-08-01T22:11:43.507Z,97474.77
2017-08-01T22:14:07.229Z,97476.38
2017-08-01T22:16:31.409Z,97477.91
2017-08-01T22:18:55.490Z,97475.41
2017-08-01T22:21:22.475Z,97467.62
2017-08-01T22:23:50.052Z,97471.00
2017-08-01T22:26:13.562Z,97467.97
2017-08-01T22:28:38.699Z,97463.47
2017-08-01T22:31:02.754Z,97472.52
2017-08-01T22:33:30.089Z,97471.80
2017-08-01T22:35:54.588Z,97475.06
2017-08-01T22:38:19.181Z,97468.56
2017-08-01T22:40:43.104Z,97472.91
2017-08-01T22:43:07.450Z,97472.16
2017-08-01T22:45:32.340Z,97471.95
2017-08-01T22:47:58.260Z,97474.08
2017-08-01T22:50:22.339Z,97469.02
2017-08-01T22:52:46.002Z,97472.41
2017-08-01T22:55:09.780Z,97469.02
2017-08-01T22:57:33.554Z,97466.80
2017-08-01T22:59:56.176Z,97470.09
2017-08-01T23:02:19.764Z,97466.81
2017-08-01T23:04:43.025Z,97468.17
2017-08-01T23:07:06.240Z,97463.59
2017-08-01T23:09:29.758Z,97466.88
2017-08-01T23:11:52.025Z,97465.84
2017-08-01T23:14:15.855Z,97461.94
2017-08-01T23:16:39.427Z,97459.11
2017-08-01T23:19:02.686Z,97460.57
2017-08-01T23:21:29.254Z,97452.70
2017-08-01T23:23:52.172Z,97448.20
2017-08-01T23:26:15.640Z,97453.18
2017-08-01T23:28:41.202Z,97449.14
2017-08-01T23:31:04.614Z,97440.41
2017-08-01T23:33:31.363Z,97439.30
2017-08-01T23:35:55.330Z,97443.62
2017-08-01T23:38:18.914Z,97452.20
2017-08-01T23:40:42.263Z,97450.19
2017-08-01T23:43:06.225Z,97453.14
2017-08-01T23:45:28.869Z,97458.84
2017-08-01T23:47:52.643Z,97459.38
2017-08-01T23:50:16.434Z,97455.55
2017-08-01T23:52:39.377Z,97441.66
2017-08-01T23:55:02.203Z,97444.89
2017-08-01T23:57:26.716Z,97448.80
2017-08-01T23:59:49.928Z,97456.91
